sensor_id;sensor_type;location;lat;lon;timestamp;pressure;altitude;pressure_sealevel;temperature;humidity
61484;BME280;47349;55.640;37.692;2022-11-23T16:20:50;98573.78;;;-0.86;100.00
61484;BME280;47349;55.640;37.692;2022-11-23T16:24:23;98617.38;;;-0.63;100.00
61484;BME280;47349;55.640;37.692;2022-11-23T16:27:26;98618.41;;;-0.75;100.00
61484;BME280;47349;55.640;37.692;2022-11-23T16:30:41;98601.81;;;-0.96;100.00
61484;BME280;47349;55.640;37.692;2022-11-23T16:34:36;98631.81;;;-0.78;100.00
61484;BME280;47349;55.640;37.692;2022-11-23T16:38:19;98548.03;;;-1.34;100.00
61484;BME280;47349;55.640;37.692;2022-11-23T16:41:27;98570.09;;;-1.25;100.00
61484;BME280;47349;55.640;37.692;2022-11-23T16:44:54;98606.28;;;-0.87;100.00
61484;BME280;47349;55.640;37.692;2022-11-23T16:51:21;98615.34;;;-0.80;100.00
61484;BME280;47349;55.640;37.692;2022-11-23T16:54:07;98659.53;;;-0.53;100.00
61484;BME280;47349;55.640;37.692;2022-11-23T17:00:10;98602.47;;;-1.04;100.00
61484;BME280;47349;55.640;37.692;2022-11-23T17:02:42;98649.28;;;-0.77;100.00
61484;BME280;47349;55.640;37.692;2022-11-23T17:05:23;98625.81;;;-0.90;100.00
61484;BME280;47349;55.640;37.692;2022-11-23T17:07:53;98656.66;;;-0.71;100.00
61484;BME280;47349;55.640;37.692;2022-11-23T17:10:22;98624.31;;;-1.04;100.00
61484;BME280;47349;55.640;37.692;2022-11-23T17:13:06;98628.75;;;-1.04;100.00
61484;BME280;47349;55.640;37.692;2022-11-23T17:15:38;98648.72;;;-1.01;100.00
61484;BME280;47349;55.640;37.692;2022-11-23T17:18:19;98652.56;;;-0.85;100.00
61484;BME280;47349;55.640;37.692;2022-11-23T17:21:00;98620.72;;;-1.02;100.00
61484;BME280;47349;55.640;37.692;2022-11-23T17:23:28;98692.53;;;-0.70;100.00
61484;BME280;47349;55.640;37.692;2022-11-23T17:25:57;98681.59;;;-0.65;100.00
61484;BME280;47349;55.640;37.692;2022-11-23T17:28:56;98694.38;;;-0.61;100.00
61484;BME280;47349;55.640;37.692;2022-11-23T17:31:37;98691.06;;;-0.63;100.00
61484;BME280;47349;55.640;37.692;2022-11-23T17:34:27;98670.44;;;-0.79;100.00
61484;BME280;47349;55.640;37.692;2022-11-23T17:36:56;98668.41;;;-0.96;100.00
61484;BME280;47349;55.640;37.692;2022-11-23T17:39:44;98680.78;;;-0.66;100.00
61484;BME280;47349;55.640;37.692;2022-11-23T17:43:26;98674.28;;;-0.83;100.00
61484;BME280;47349;55.640;37.692;2022-11-23T17:46:32;98674.66;;;-1.08;100.00
61484;BME280;47349;55.640;37.692;2022-11-23T17:50:01;98710.13;;;-1.02;100.00
61484;BME280;47349;55.640;37.692;2022-11-23T17:53:04;98673.47;;;-1.36;100.00
61484;BME280;47349;55.640;37.692;2022-11-23T17:56:28;98661.53;;;-1.40;100.00
61484;BME280;47349;55.640;37.692;2022-11-23T18:00:19;98685.91;;;-1.38;100.00
61484;BME280;47349;55.640;37.692;2022-11-23T18:03:13;98722.09;;;-1.31;100.00
61484;BME280;47349;55.640;37.692;2022-11-23T18:06:19;98712.66;;;-1.33;100.00
61484;BME280;47349;55.640;37.692;2022-11-23T18:09:56;98678.47;;;-1.65;100.00
61484;BME280;47349;55.640;37.692;2022-11-23T18:13:32;98692.09;;;-1.71;100.00
61484;BME280;47349;55.640;37.692;2022-11-23T18:17:08;98744.47;;;-1.47;100.00
61484;BME280;47349;55.640;37.692;2022-11-23T18:20:22;98733.00;;;-1.46;100.00
61484;BME280;47349;55.640;37.692;2022-11-23T18:23:11;98702.56;;;-1.49;100.00
61484;BME280;47349;55.640;37.692;2022-11-23T18:27:03;98750.19;;;-1.42;100.00
61484;BME280;47349;55.640;37.692;2022-11-23T18:30:39;98723.72;;;-1.62;100.00
61484;BME280;47349;55.640;37.692;2022-11-23T18:33:41;98695.56;;;-1.82;100.00
61484;BME280;47349;55.640;37.692;2022-11-23T18:37:18;98700.66;;;-1.69;100.00
61484;BME280;47349;55.640;37.692;2022-11-23T18:40:19;98726.22;;;-1.60;100.00
61484;BME280;47349;55.640;37.692;2022-11-23T18:44:07;98691.06;;;-1.91;100.00
61484;BME280;47349;55.640;37.692;2022-11-23T18:47:23;98736.16;;;-1.64;100.00
61484;BME280;47349;55.640;37.692;2022-11-23T18:50:30;98735.56;;;-1.67;100.00
61484;BME280;47349;55.640;37.692;2022-11-23T18:54:20;98720.53;;;-1.76;100.00
61484;BME280;47349;55.640;37.692;2022-11-23T18:57:30;98737.22;;;-1.66;100.00
61484;BME280;47349;55.640;37.692;2022-11-23T19:00:38;98736.16;;;-1.64;100.00
61484;BME280;47349;55.640;37.692;2022-11-23T19:04:06;98718.31;;;-1.60;100.00
61484;BME280;47349;55.640;37.692;2022-11-23T19:06:49;98746.50;;;-1.51;100.00
61484;BME280;47349;55.640;37.692;2022-11-23T19:10:02;98764.06;;;-1.51;100.00
61484;BME280;47349;55.640;37.692;2022-11-23T19:13:14;98773.16;;;-1.44;100.00
61484;BME280;47349;55.640;37.692;2022-11-23T19:16:14;98733.28;;;-1.72;100.00
61484;BME280;47349;55.640;37.692;2022-11-23T19:19:27;98759.66;;;-1.62;100.00
61484;BME280;47349;55.640;37.692;2022-11-23T19:22:14;98715.38;;;-1.89;100.00
61484;BME280;47349;55.640;37.692;2022-11-23T19:24:58;98765.16;;;-1.65;100.00
61484;BME280;47349;55.640;37.692;2022-11-23T19:27:44;98748.34;;;-1.96;100.00
61484;BME280;47349;55.640;37.692;2022-11-23T19:30:55;98787.25;;;-1.79;100.00
61484;BME280;47349;55.640;37.692;2022-11-23T19:34:19;98728.53;;;-2.12;100.00
61484;BME280;47349;55.640;37.692;2022-11-23T19:37:31;98795.13;;;-1.79;100.00
61484;BME280;47349;55.640;37.692;2022-11-23T19:40:56;98763.84;;;-2.16;100.00
61484;BME280;47349;55.640;37.692;2022-11-23T19:43:43;98755.75;;;-2.13;100.00
61484;BME280;47349;55.640;37.692;2022-11-23T19:46:50;98782.72;;;-1.99;100.00
61484;BME280;47349;55.640;37.692;2022-11-23T19:49:53;98802.75;;;-2.10;100.00
61484;BME280;47349;55.640;37.692;2022-11-23T19:52:38;98765.88;;;-2.19;100.00
61484;BME280;47349;55.640;37.692;2022-11-23T19:55:48;98794.28;;;-2.13;100.00
61484;BME280;47349;55.640;37.692;2022-11-23T19:59:13;98824.97;;;-1.80;100.00
61484;BME280;47349;55.640;37.692;2022-11-23T20:02:43;98796.31;;;-1.94;100.00
61484;BME280;47349;55.640;37.692;2022-11-23T20:06:07;98769.72;;;-2.12;100.00
61484;BME280;47349;55.640;37.692;2022-11-23T20:08:57;98853.50;;;-1.75;100.00
61484;BME280;47349;55.640;37.692;2022-11-23T20:12:03;98808.50;;;-1.82;100.00
61484;BME280;47349;55.640;37.692;2022-11-23T20:15:11;98792.38;;;-2.11;100.00
61484;BME280;47349;55.640;37.692;2022-11-23T20:18:15;98842.75;;;-1.95;100.00
61484;BME280;47349;55.640;37.692;2022-11-23T20:21:21;98820.91;;;-2.07;100.00
61484;BME280;47349;55.640;37.692;2022-11-23T20:24:24;98799.38;;;-2.34;100.00
61484;BME280;47349;55.640;37.692;2022-11-23T20:27:31;98846.16;;;-2.28;100.00
61484;BME280;47349;55.640;37.692;2022-11-23T20:30:36;98829.94;;;-2.57;100.00
61484;BME280;47349;55.640;37.692;2022-11-23T20:33:41;98832.84;;;-2.84;100.00
61484;BME280;47349;55.640;37.692;2022-11-23T20:36:53;98832.84;;;-2.84;100.00
61484;BME280;47349;55.640;37.692;2022-11-23T20:40:11;98863.31;;;-2.70;100.00
61484;BME280;47349;55.640;37.692;2022-11-23T20:42:59;98824.47;;;-2.89;100.00
61484;BME280;47349;55.640;37.692;2022-11-23T20:45:57;98861.72;;;-2.73;100.00
61484;BME280;47349;55.640;37.692;2022-11-23T20:48:47;98847.31;;;-2.91;100.00
61484;BME280;47349;55.640;37.692;2022-11-23T20:51:29;98861.19;;;-2.89;99.82
61484;BME280;47349;55.640;37.692;2022-11-23T20:54:15;98834.38;;;-3.05;98.68
61484;BME280;47349;55.640;37.692;2022-11-23T20:57:19;98879.63;;;-2.91;98.23
61484;BME280;47349;55.640;37.692;2022-11-23T21:00:25;98859.53;;;-3.27;99.04
61484;BME280;47349;55.640;37.692;2022-11-23T21:03:57;98895.53;;;-2.81;99.14
61484;BME280;47349;55.640;37.692;2022-11-23T21:07:20;98904.84;;;-2.77;98.74
61484;BME280;47349;55.640;37.692;2022-11-23T21:10:11;98884.00;;;-2.78;99.04
61484;BME280;47349;55.640;37.692;2022-11-23T21:14:00;98869.13;;;-2.67;98.88
61484;BME280;47349;55.640;37.692;2022-11-23T21:17:39;98908.22;;;-2.51;98.18
61484;BME280;47349;55.640;37.692;2022-11-23T21:21:20;98867.63;;;-2.82;99.02
61484;BME280;47349;55.640;37.692;2022-11-23T21:24:41;98877.19;;;-2.81;99.07
61484;BME280;47349;55.640;37.692;2022-11-23T21:27:55;98904.94;;;-2.66;100.00
61484;BME280;47349;55.640;37.692;2022-11-23T21:30:47;98897.59;;;-2.73;99.83
61484;BME280;47349;55.640;37.692;2022-11-23T21:33:40;98885.84;;;-2.68;99.80
61484;BME280;47349;55.640;37.692;2022-11-23T21:36:31;98877.19;;;-2.81;98.91
61484;BME280;47349;55.640;37.692;2022-11-23T21:39:14;98922.38;;;-2.53;99.45
61484;BME280;47349;55.640;37.692;2022-11-23T21:41:57;98880.03;;;-2.84;99.74
61484;BME280;47349;55.640;37.692;2022-11-23T21:45:00;98929.75;;;-2.59;98.08
61484;BME280;47349;55.640;37.692;2022-11-23T21:47:43;98890.75;;;-2.87;96.05
61484;BME280;47349;55.640;37.692;2022-11-23T21:50:33;98890.38;;;-2.70;95.50
61484;BME280;47349;55.640;37.692;2022-11-23T21:53:19;98894.16;;;-2.74;93.85
61484;BME280;47349;55.640;37.692;2022-11-23T21:56:44;98939.91;;;-2.54;92.58
61484;BME280;47349;55.640;37.692;2022-11-23T21:59:50;98887.41;;;-2.89;92.50
61484;BME280;47349;55.640;37.692;2022-11-23T22:02:38;98925.91;;;-2.66;92.11
61484;BME280;47349;55.640;37.692;2022-11-23T22:05:42;98941.91;;;-2.58;91.69
61484;BME280;47349;55.640;37.692;2022-11-23T22:08:53;98924.16;;;-2.78;90.91
61484;BME280;47349;55.640;37.692;2022-11-23T22:11:36;98907.72;;;-2.80;91.62
61484;BME280;47349;55.640;37.692;2022-11-23T22:14:23;98959.94;;;-2.53;91.20
61484;BME280;47349;55.640;37.692;2022-11-23T22:17:07;98904.06;;;-2.66;90.48
61484;BME280;47349;55.640;37.692;2022-11-23T22:19:52;98891.69;;;-2.88;90.30
61484;BME280;47349;55.640;37.692;2022-11-23T22:22:36;98958.44;;;-2.44;90.84
61484;BME280;47349;55.640;37.692;2022-11-23T22:25:22;98934.38;;;-2.38;90.26
61484;BME280;47349;55.640;37.692;2022-11-23T22:28:04;98936.50;;;-2.43;89.86
61484;BME280;47349;55.640;37.692;2022-11-23T22:30:52;98921.88;;;-2.59;89.52
61484;BME280;47349;55.640;37.692;2022-11-23T22:34:12;98950.78;;;-2.47;89.29
61484;BME280;47349;55.640;37.692;2022-11-23T22:36:56;98959.69;;;-2.61;89.19
61484;BME280;47349;55.640;37.692;2022-11-23T22:39:41;98955.84;;;-2.81;89.20
61484;BME280;47349;55.640;37.692;2022-11-23T22:42:34;98970.56;;;-2.54;90.03
61484;BME280;47349;55.640;37.692;2022-11-23T22:45:46;98950.69;;;-2.70;89.36
61484;BME280;47349;55.640;37.692;2022-11-23T22:48:50;98985.19;;;-2.76;90.51
61484;BME280;47349;55.640;37.692;2022-11-23T22:51:44;98949.31;;;-3.12;91.19
61484;BME280;47349;55.640;37.692;2022-11-23T22:55:12;98980.22;;;-2.92;91.68
61484;BME280;47349;55.640;37.692;2022-11-23T22:58:20;98961.16;;;-3.06;93.02
61484;BME280;47349;55.640;37.692;2022-11-23T23:01:49;98945.13;;;-3.15;92.80
61484;BME280;47349;55.640;37.692;2022-11-23T23:05:14;98964.53;;;-3.04;93.09
61484;BME280;47349;55.640;37.692;2022-11-23T23:08:58;98941.16;;;-3.20;93.71
61484;BME280;47349;55.640;37.692;2022-11-23T23:12:01;98967.41;;;-2.96;93.97
61484;BME280;47349;55.640;37.692;2022-11-23T23:14:57;98963.94;;;-2.84;95.31
61484;BME280;47349;55.640;37.692;2022-11-23T23:17:48;98988.88;;;-2.78;93.99
61484;BME280;47349;55.640;37.692;2022-11-23T23:20:41;98928.53;;;-3.02;94.50
61484;BME280;47349;55.640;37.692;2022-11-23T23:23:50;98956.41;;;-2.89;94.08
61484;BME280;47349;55.640;37.692;2022-11-23T23:27:14;98975.03;;;-2.80;92.54
61484;BME280;47349;55.640;37.692;2022-11-23T23:30:16;98955.00;;;-3.18;91.71
61484;BME280;47349;55.640;37.692;2022-11-23T23:33:57;98992.53;;;-3.30;91.70
61484;BME280;47349;55.640;37.692;2022-11-23T23:37:01;98946.09;;;-3.41;92.60
61484;BME280;47349;55.640;37.692;2022-11-23T23:39:53;98993.03;;;-3.25;92.62
61484;BME280;47349;55.640;37.692;2022-11-23T23:42:57;98996.09;;;-3.19;91.88
61484;BME280;47349;55.640;37.692;2022-11-23T23:45:58;98968.22;;;-3.45;91.79
61484;BME280;47349;55.640;37.692;2022-11-23T23:49:23;98986.00;;;-3.25;89.10
61484;BME280;47349;55.640;37.692;2022-11-23T23:53:13;98987.41;;;-3.32;89.87
61484;BME280;47349;55.640;37.692;2022-11-23T23:56:22;98980.59;;;-3.47;88.81
61484;BME280;47349;55.640;37.692;2022-11-23T23:59:17;98989.91;;;-3.43;88.73
